EGGD/BRS METAR and TAF weather

Enter ICAO airport designator
Station Type Date Time Source
EGGD METAR 2018/10/19 15:20 UTC NOAA

EGGD 191520Z AUTO 25004KT 210V290 9999 NCD 15/09 Q1026


Station Type Date Time Source
EGGD Decoded METAR 2018/10/19 15:20 UTC NOAA

Bristol / Lulsgate , United Kingdom (EGGD) 51-23N 002-43W
Oct 19, 2018 - 11:20 AM EDT / 2018.10.19 1520 UTC
Wind: from the WSW (250 degrees) at 5 MPH (4 KT) (direction variable):0
Visibility: greater than 7 mile(s):0
Temperature: 59 F (15 C)
Dew Point: 48 F (9 C)
Relative Humidity: 67%
Pressure (altimeter): 30.30 in. Hg (1026 hPa)
ob: EGGD 191520Z AUTO 25004KT 210V290 9999 NCD 15/09 Q1026
cycle: 15

Station Type Date Time Source
EGGD TAF 2018/10/19 12:09 UTC NOAA

TAF EGGD 191052Z 1912/2012 VRB03KT 9999 SCT030
BECMG 1921/1924 7000
TEMPO 2000/2007 3500 BR
BECMG 2007/2010 9999
BECMG 2009/2012 24010KT


Example: see airport list